createdAt,value
2022-12-18T00:01:28.528Z,102490.59
2022-12-18T00:03:56.943Z,102490.66
2022-12-18T00:06:25.621Z,102500.22
2022-12-18T00:08:53.160Z,102507.00
2022-12-18T00:11:22.676Z,102506.00
2022-12-18T00:13:50.278Z,102511.06
2022-12-18T00:16:23.079Z,102512.91
2022-12-18T00:18:51.646Z,102512.00
2022-12-18T00:21:19.517Z,102508.50
2022-12-18T00:23:48.404Z,102503.06
2022-12-18T00:26:18.442Z,102508.97
2022-12-18T00:28:46.058Z,102503.94
2022-12-18T00:31:18.940Z,102505.59
2022-12-18T00:33:46.074Z,102504.38
2022-12-18T00:36:25.934Z,102503.34
2022-12-18T00:38:54.962Z,102500.88
2022-12-18T00:41:41.281Z,102491.59
2022-12-18T00:44:11.244Z,102497.84
2022-12-18T00:46:38.467Z,102501.94
2022-12-18T00:49:06.180Z,102494.22
2022-12-18T00:51:33.452Z,102500.53
2022-12-18T00:54:00.812Z,102498.56
2022-12-18T00:56:27.884Z,102495.25
2022-12-18T00:58:55.397Z,102495.31
2022-12-18T01:01:22.988Z,102490.09
2022-12-18T01:03:50.225Z,102493.63
2022-12-18T01:06:17.842Z,102493.56
2022-12-18T01:08:45.176Z,102493.44
2022-12-18T01:11:15.282Z,102503.78
2022-12-18T01:13:42.993Z,102501.50
2022-12-18T01:16:12.867Z,102508.81
2022-12-18T01:18:40.310Z,102508.88
2022-12-18T01:21:12.435Z,102510.53
2022-12-18T01:23:39.967Z,102524.09
2022-12-18T01:26:12.810Z,102521.69
2022-12-18T01:28:41.046Z,102528.47
2022-12-18T01:31:34.519Z,102535.47
2022-12-18T01:34:02.604Z,102539.56
2022-12-18T01:36:37.588Z,102535.34
2022-12-18T01:39:07.257Z,102533.50
2022-12-18T01:41:57.258Z,102527.13
2022-12-18T01:45:02.088Z,102531.09
2022-12-18T01:47:48.651Z,102536.41
2022-12-18T01:50:25.992Z,102534.97
2022-12-18T01:52:56.310Z,102533.28
2022-12-18T01:55:26.353Z,102529.00
2022-12-18T01:57:55.052Z,102526.22
2022-12-18T02:00:24.237Z,102541.34
2022-12-18T02:02:51.633Z,102543.19
2022-12-18T02:05:29.122Z,102540.59
2022-12-18T02:08:08.269Z,102535.47
2022-12-18T02:11:14.143Z,102539.03
2022-12-18T02:14:14.016Z,102538.22
2022-12-18T02:17:04.544Z,102543.34
2022-12-18T02:19:37.407Z,102543.28
2022-12-18T02:22:36.412Z,102544.25
2022-12-18T02:25:22.256Z,102553.63
2022-12-18T02:27:50.153Z,102546.25
2022-12-18T02:30:17.753Z,102546.03
2022-12-18T02:32:48.193Z,102553.88
2022-12-18T02:35:18.845Z,102552.34
2022-12-18T02:37:46.968Z,102558.59
2022-12-18T02:40:15.474Z,102566.66
2022-12-18T02:42:42.713Z,102565.53
2022-12-18T02:45:10.290Z,102563.06
2022-12-18T02:47:39.839Z,102560.81
2022-12-18T02:50:30.813Z,102570.53
2022-12-18T02:53:00.917Z,102573.31
2022-12-18T02:55:41.806Z,102572.50
2022-12-18T02:58:47.901Z,102567.69
2022-12-18T03:01:18.789Z,102562.66
2022-12-18T03:03:53.393Z,102563.00
2022-12-18T03:06:27.678Z,102561.50
2022-12-18T03:09:01.037Z,102567.66
2022-12-18T03:11:48.617Z,102572.94
2022-12-18T03:14:17.197Z,102570.53
2022-12-18T03:16:45.320Z,102571.44
2022-12-18T03:19:17.962Z,102563.78
2022-12-18T03:21:48.725Z,102572.31
2022-12-18T03:24:16.335Z,102573.19
2022-12-18T03:26:46.039Z,102568.91
2022-12-18T03:29:22.784Z,102572.41
2022-12-18T03:31:54.295Z,102579.25
2022-12-18T03:34:24.985Z,102575.75
2022-12-18T03:36:52.155Z,102575.66
2022-12-18T03:39:20.228Z,102580.41
2022-12-18T03:42:02.973Z,102568.13
2022-12-18T03:44:41.013Z,102566.72
2022-12-18T03:47:16.949Z,102567.38
2022-12-18T03:50:02.075Z,102569.00
2022-12-18T03:52:31.852Z,102575.75
2022-12-18T03:55:00.523Z,102586.47
2022-12-18T03:57:30.614Z,102580.41
2022-12-18T04:00:14.938Z,102590.28
2022-12-18T04:02:50.768Z,102584.34
2022-12-18T04:05:18.942Z,102579.44
2022-12-18T04:07:47.714Z,102569.34
2022-12-18T04:10:16.106Z,102569.34
2022-12-18T04:12:43.272Z,102574.41
2022-12-18T04:15:11.770Z,102585.44
2022-12-18T04:17:39.712Z,102579.44
2022-12-18T04:20:07.134Z,102578.63
2022-12-18T04:22:34.289Z,102591.44
2022-12-18T04:25:01.473Z,102593.13
2022-12-18T04:27:28.599Z,102602.59
2022-12-18T04:29:55.763Z,102600.81
2022-12-18T04:32:22.864Z,102592.16
2022-12-18T04:34:49.964Z,102592.03
2022-12-18T04:37:17.102Z,102592.03
2022-12-18T04:39:44.216Z,102600.53
2022-12-18T04:42:11.380Z,102603.84
2022-12-18T04:44:38.513Z,102607.94
2022-12-18T04:47:05.662Z,102604.47
2022-12-18T04:49:32.776Z,102600.16
2022-12-18T04:51:59.929Z,102601.75
2022-12-18T04:54:27.024Z,102593.16
2022-12-18T04:56:54.169Z,102596.44
2022-12-18T04:59:22.349Z,102597.22
2022-12-18T05:01:50.808Z,102593.75
2022-12-18T05:04:18.131Z,102600.69
2022-12-18T05:06:45.374Z,102607.38
2022-12-18T05:09:12.515Z,102606.66
2022-12-18T05:11:39.673Z,102611.81
2022-12-18T05:14:06.793Z,102605.16
2022-12-18T05:16:34.005Z,102612.97
2022-12-18T05:19:01.109Z,102623.28
2022-12-18T05:21:28.242Z,102624.16
2022-12-18T05:23:55.361Z,102630.09
2022-12-18T05:26:22.446Z,102634.41
2022-12-18T05:28:49.606Z,102636.97
2022-12-18T05:31:16.757Z,102647.22
2022-12-18T05:33:44.272Z,102640.06
2022-12-18T05:36:12.338Z,102646.28
2022-12-18T05:38:40.209Z,102641.69
2022-12-18T05:41:08.228Z,102645.28
2022-12-18T05:43:37.457Z,102642.38
2022-12-18T05:46:06.814Z,102641.16
2022-12-18T05:48:34.454Z,102641.50
2022-12-18T05:51:07.444Z,102645.28
2022-12-18T05:53:35.198Z,102648.75
2022-12-18T05:56:07.714Z,102658.44
2022-12-18T05:58:35.463Z,102650.59
2022-12-18T06:01:10.849Z,102646.53
2022-12-18T06:03:38.171Z,102653.53
2022-12-18T06:06:05.681Z,102661.09
2022-12-18T06:08:32.837Z,102666.31
2022-12-18T06:10:59.977Z,102670.63
2022-12-18T06:13:27.088Z,102667.25
2022-12-18T06:15:54.237Z,102669.59
2022-12-18T06:18:21.343Z,102663.31
2022-12-18T06:20:56.840Z,102673.94
2022-12-18T06:23:24.021Z,102674.75
2022-12-18T06:25:51.569Z,102671.72
2022-12-18T06:28:19.252Z,102675.88
2022-12-18T06:30:47.862Z,102676.44
2022-12-18T06:33:15.996Z,102681.06
2022-12-18T06:35:43.251Z,102682.38
2022-12-18T06:38:10.415Z,102689.44
2022-12-18T06:40:39.475Z,102695.63
2022-12-18T06:43:07.091Z,102694.94
2022-12-18T06:45:34.621Z,102711.25
2022-12-18T06:48:01.967Z,102707.91
2022-12-18T06:50:29.231Z,102703.66
2022-12-18T06:52:57.025Z,102707.00
2022-12-18T06:55:24.207Z,102712.91
2022-12-18T06:57:51.347Z,102723.16
2022-12-18T07:00:18.768Z,102732.53
2022-12-18T07:02:45.963Z,102734.72
2022-12-18T07:05:13.144Z,102726.34
2022-12-18T07:07:40.369Z,102720.25
2022-12-18T07:10:07.790Z,102707.44
2022-12-18T07:12:35.041Z,102708.50
2022-12-18T07:15:02.123Z,102712.38
2022-12-18T07:17:30.461Z,102719.13
2022-12-18T07:19:57.616Z,102713.31
2022-12-18T07:22:26.260Z,102710.66
2022-12-18T07:24:53.347Z,102721.81
2022-12-18T07:27:20.489Z,102724.56
2022-12-18T07:29:47.599Z,102733.34
2022-12-18T07:32:14.923Z,102717.97
2022-12-18T07:34:42.331Z,102721.41
2022-12-18T07:37:09.451Z,102715.59
2022-12-18T07:39:36.592Z,102720.72
2022-12-18T07:42:22.436Z,102723.00
2022-12-18T07:44:50.314Z,102723.28
2022-12-18T07:47:17.424Z,102729.34
2022-12-18T07:49:44.642Z,102722.59
2022-12-18T07:52:13.270Z,102726.94
2022-12-18T07:54:41.211Z,102725.09
2022-12-18T07:57:16.538Z,102721.66
2022-12-18T07:59:54.502Z,102710.59
2022-12-18T08:02:21.678Z,102719.09
2022-12-18T08:04:49.088Z,102726.78
2022-12-18T08:07:16.177Z,102729.41
2022-12-18T08:09:43.306Z,102726.25
2022-12-18T08:12:10.415Z,102729.75
2022-12-18T08:14:37.823Z,102731.50
2022-12-18T08:17:05.006Z,102737.56
2022-12-18T08:19:32.156Z,102727.31
2022-12-18T08:21:59.254Z,102730.63
2022-12-18T08:24:26.608Z,102734.81
2022-12-18T08:27:20.917Z,102746.81
2022-12-18T08:29:40.833Z,102749.13
2022-12-18T08:32:08.231Z,102749.81
2022-12-18T08:34:35.484Z,102732.84
2022-12-18T08:37:02.585Z,102740.63
2022-12-18T08:39:29.783Z,102746.75
2022-12-18T08:42:15.692Z,102751.94
2022-12-18T08:44:42.856Z,102752.75
2022-12-18T08:47:09.969Z,102756.25
2022-12-18T08:49:37.381Z,102755.19
2022-12-18T08:52:04.704Z,102749.19
2022-12-18T08:54:31.882Z,102752.88
2022-12-18T08:56:58.975Z,102760.66
2022-12-18T08:59:26.738Z,102771.59
2022-12-18T09:01:55.016Z,102786.38
2022-12-18T09:04:23.215Z,102782.91
2022-12-18T09:06:50.583Z,102779.50
2022-12-18T09:09:18.019Z,102772.88
2022-12-18T09:11:45.368Z,102780.03
2022-12-18T09:14:12.817Z,102774.75
2022-12-18T09:16:40.166Z,102782.53
2022-12-18T09:19:07.690Z,102792.09
2022-12-18T09:21:37.961Z,102788.81
2022-12-18T09:24:08.017Z,102787.31
2022-12-18T09:26:36.811Z,102790.53
2022-12-18T09:29:04.587Z,102790.44
2022-12-18T09:31:31.834Z,102789.88
2022-12-18T09:33:59.177Z,102786.63
2022-12-18T09:36:26.471Z,102793.69
2022-12-18T09:38:54.267Z,102794.03
2022-12-18T09:41:41.521Z,102785.09
2022-12-18T09:48:30.034Z,102768.28
2022-12-18T09:51:02.132Z,102766.84
2022-12-18T09:53:34.287Z,102767.78
2022-12-18T09:56:03.078Z,102764.44
2022-12-18T09:58:46.166Z,102758.50
2022-12-18T10:01:15.860Z,102755.94
2022-12-18T10:03:43.399Z,102737.09
2022-12-18T10:06:19.433Z,102737.09
2022-12-18T10:08:47.056Z,102726.97
2022-12-18T10:11:34.009Z,102730.44
2022-12-18T10:14:15.543Z,102720.31
2022-12-18T10:16:52.914Z,102722.19
2022-12-18T10:19:24.097Z,102724.81
2022-12-18T10:22:03.445Z,102725.16
2022-12-18T10:24:41.372Z,102727.91
2022-12-18T10:27:19.930Z,102721.19
2022-12-18T10:29:47.522Z,102727.38
2022-12-18T10:32:23.207Z,102731.81
2022-12-18T10:34:59.868Z,102722.69
2022-12-18T10:37:29.786Z,102713.50
2022-12-18T10:40:10.678Z,102715.25
2022-12-18T10:42:38.283Z,102709.31
2022-12-18T10:45:16.475Z,102704.22
2022-12-18T10:47:49.559Z,102705.16
2022-12-18T10:50:26.241Z,102701.06
2022-12-18T10:53:00.919Z,102699.28
2022-12-18T10:55:33.642Z,102687.44
2022-12-18T10:58:26.571Z,102685.97
2022-12-18T11:01:21.234Z,102675.94
2022-12-18T11:03:51.842Z,102668.22
2022-12-18T11:06:25.415Z,102674.38
2022-12-18T11:09:08.054Z,102679.47
2022-12-18T11:11:40.622Z,102682.06
2022-12-18T11:14:23.569Z,102677.09
2022-12-18T11:19:41.110Z,102675.66
2022-12-18T11:22:22.867Z,102672.31
2022-12-18T11:25:29.434Z,102670.69
2022-12-18T11:27:43.166Z,102674.16
2022-12-18T11:30:11.314Z,102678.28
2022-12-18T11:32:40.678Z,102668.63
2022-12-18T11:35:31.881Z,102679.81
2022-12-18T11:38:08.043Z,102689.34
2022-12-18T11:40:41.120Z,102685.16
2022-12-18T11:43:37.305Z,102669.13
2022-12-18T11:46:19.557Z,102683.66
2022-12-18T11:49:07.076Z,102682.59
2022-12-18T11:52:13.705Z,102686.13
2022-12-18T11:54:41.048Z,102693.94
2022-12-18T11:57:08.334Z,102698.22
2022-12-18T11:59:59.380Z,102712.59
2022-12-18T12:02:45.374Z,102701.53
2022-12-18T12:05:43.648Z,102698.97
2022-12-18T12:08:19.375Z,102710.25
2022-12-18T12:11:08.969Z,102706.97
2022-12-18T12:13:51.344Z,102715.56
2022-12-18T12:16:36.127Z,102716.97
2022-12-18T12:19:17.302Z,102706.72
2022-12-18T12:21:59.557Z,102707.72
2022-12-18T12:24:55.751Z,102710.50
2022-12-18T12:27:52.143Z,102718.38
2022-12-18T12:30:22.989Z,102717.72
2022-12-18T12:33:28.054Z,102724.41
2022-12-18T12:36:13.568Z,102721.06
2022-12-18T12:39:02.356Z,102731.50
2022-12-18T12:41:52.142Z,102731.56
2022-12-18T12:44:30.895Z,102738.50
2022-12-18T12:47:01.777Z,102739.34
2022-12-18T12:49:36.310Z,102736.75
2022-12-18T12:52:12.296Z,102724.00
2022-12-18T12:54:40.098Z,102728.25
2022-12-18T12:57:23.505Z,102713.81
2022-12-18T13:00:04.735Z,102706.97
2022-12-18T13:02:44.111Z,102684.63
2022-12-18T13:05:23.412Z,102676.78
2022-12-18T13:08:00.783Z,102683.44
2022-12-18T13:10:34.097Z,102677.59
2022-12-18T13:13:13.353Z,102668.28
2022-12-18T13:15:42.375Z,102670.84
2022-12-18T13:18:09.663Z,102678.63
2022-12-18T13:20:44.710Z,102689.88
2022-12-18T13:23:24.378Z,102687.38
2022-12-18T13:25:53.870Z,102687.50
2022-12-18T13:28:49.746Z,102687.53
2022-12-18T13:31:41.839Z,102677.34
2022-12-18T13:34:27.914Z,102680.72
2022-12-18T13:37:40.817Z,102686.66
2022-12-18T13:40:40.415Z,102686.75
2022-12-18T13:43:22.858Z,102680.75
2022-12-18T13:46:27.139Z,102672.25
2022-12-18T13:49:06.553Z,102675.66
2022-12-18T13:51:35.216Z,102662.63
2022-12-18T13:54:41.523Z,102645.44
2022-12-18T13:57:35.624Z,102658.47
2022-12-18T14:00:31.540Z,102662.84
2022-12-18T14:02:59.575Z,102665.47
2022-12-18T14:05:32.742Z,102651.88
2022-12-18T14:08:03.135Z,102643.44
2022-12-18T14:10:49.167Z,102644.28
2022-12-18T14:13:24.507Z,102638.28
2022-12-18T14:15:52.245Z,102646.03
2022-12-18T14:18:45.368Z,102640.13
2022-12-18T14:21:24.724Z,102642.63
2022-12-18T14:24:19.661Z,102638.34
2022-12-18T14:26:48.677Z,102634.75
2022-12-18T14:29:24.830Z,102625.72
2022-12-18T14:32:13.484Z,102623.13
2022-12-18T14:34:49.739Z,102612.91
2022-12-18T14:37:22.390Z,102600.97
2022-12-18T14:40:11.042Z,102604.25
2022-12-18T14:42:38.844Z,102599.13
2022-12-18T14:45:41.620Z,102605.94
2022-12-18T14:48:12.752Z,102597.03
2022-12-18T14:50:41.609Z,102596.94
2022-12-18T14:53:21.012Z,102589.16
2022-12-18T14:55:49.752Z,102581.53
2022-12-18T14:58:18.214Z,102572.00
2022-12-18T15:00:45.543Z,102575.25
2022-12-18T15:03:20.082Z,102592.38
2022-12-18T15:05:47.939Z,102595.63
2022-12-18T15:08:29.478Z,102617.69
2022-12-18T15:10:57.843Z,102614.06
2022-12-18T15:13:25.745Z,102621.13
2022-12-18T15:15:54.563Z,102625.38
2022-12-18T15:18:42.685Z,102624.53
2022-12-18T15:21:11.776Z,102619.56
2022-12-18T15:23:45.302Z,102624.00
2022-12-18T15:26:15.539Z,102618.03
2022-12-18T15:28:45.676Z,102618.03
2022-12-18T15:31:13.212Z,102617.28
2022-12-18T15:33:45.159Z,102613.88
2022-12-18T15:36:18.533Z,102625.88
2022-12-18T15:38:54.395Z,102618.09
2022-12-18T15:41:25.051Z,102627.59
2022-12-18T15:43:53.666Z,102627.72
2022-12-18T15:46:23.376Z,102632.00
2022-12-18T15:49:01.174Z,102625.91
2022-12-18T15:51:38.713Z,102631.06
2022-12-18T15:54:07.473Z,102632.81
2022-12-18T15:56:53.489Z,102631.97
2022-12-18T15:59:21.770Z,102612.97
2022-12-18T16:01:53.870Z,102621.56
2022-12-18T16:04:22.727Z,102621.44
2022-12-18T16:07:13.884Z,102611.72
2022-12-18T16:09:38.089Z,102615.16
2022-12-18T16:12:06.861Z,102617.75
2022-12-18T16:14:34.367Z,102607.25
2022-12-18T16:17:05.013Z,102611.22
2022-12-18T16:19:32.322Z,102601.53
2022-12-18T16:21:59.998Z,102598.19
2022-12-18T16:24:32.502Z,102591.41
2022-12-18T16:27:01.113Z,102594.13
2022-12-18T16:29:29.363Z,102583.91
2022-12-18T16:36:14.479Z,102601.13
2022-12-18T16:38:41.795Z,102596.00
2022-12-18T16:41:34.853Z,102591.81
2022-12-18T16:44:02.267Z,102582.25
2022-12-18T17:25:44.264Z,102592.00
2022-12-18T18:26:48.454Z,102520.53
2022-12-18T19:04:14.455Z,102471.22
2022-12-18T19:06:42.659Z,102459.94
2022-12-18T19:27:09.269Z,102432.50
2022-12-18T19:29:36.835Z,102430.75
2022-12-18T19:32:05.284Z,102432.44
2022-12-18T19:34:32.479Z,102437.53
2022-12-18T19:37:00.066Z,102434.97
2022-12-18T19:39:27.592Z,102438.41
2022-12-18T19:41:54.675Z,102434.09
2022-12-18T19:44:21.851Z,102435.94
2022-12-18T19:46:51.951Z,102435.94
2022-12-18T19:58:28.095Z,102435.69
2022-12-18T20:00:55.330Z,102423.66
2022-12-18T20:03:28.887Z,102432.16
2022-12-18T20:06:33.912Z,102438.13
2022-12-18T20:09:04.949Z,102437.25
2022-12-18T20:11:33.393Z,102424.25
2022-12-18T20:14:03.827Z,102416.56
2022-12-18T20:16:31.033Z,102417.38
2022-12-18T20:18:58.840Z,102420.91
2022-12-18T20:21:26.436Z,102408.06
2022-12-18T20:23:55.699Z,102396.00
2022-12-18T20:26:24.004Z,102385.84
2022-12-18T20:28:51.519Z,102388.44
2022-12-18T20:31:18.840Z,102378.97
2022-12-18T20:33:48.659Z,102385.81
2022-12-18T20:36:20.155Z,102389.94
2022-12-18T20:38:50.840Z,102390.81
2022-12-18T20:41:20.733Z,102393.41
2022-12-18T20:43:48.296Z,102402.00
2022-12-18T20:46:17.119Z,102401.16
2022-12-18T20:48:44.768Z,102392.66
2022-12-18T20:51:14.658Z,102393.44
2022-12-18T20:53:42.469Z,102398.59
2022-12-18T21:00:36.374Z,102363.44
